Time;durP1;ratioP1;P1;durP2;ratioP2;P2;SDS_P1;SDS_P2;PMS_P1;PMS_P2;Temp;Humidity;BMP_temperature;BMP_pressure;BME280_temperature;BME280_humidity;BME280_pressure;Samples;Min_cycle;Max_cycle;Signal;HPM_P1;HPM_P2
2022/01/08 00:01:49;;;;;;;7.63;6.90;;;;;;;7.19;64.57;94538.13;4988061;28;20420;-76
2022/01/08 00:04:20;;;;;;;6.57;5.87;;;;;;;6.89;65.67;94542.44;4994029;28;20512;-76
2022/01/08 00:07:04;;;;;;;;;;;;;;;;;;;;;
2022/01/08 00:16:26;;;;;;;6.60;5.93;;;;;;;7.52;63.54;94549.06;5069754;28;20385;-75
2022/01/08 00:18:55;;;;;;;5.30;4.30;;;;;;;6.96;65.73;94546.78;5069497;28;20987;-76
2022/01/08 00:21:34;;;;;;;7.80;6.70;;;;;;;7.04;65.06;94538.09;5069176;28;20425;-76
2022/01/08 00:24:13;;;;;;;6.17;5.57;;;;;;;7.00;64.49;94529.00;5050954;28;20420;-75
2022/01/08 00:26:55;;;;;;;8.70;7.80;;;;;;;6.84;65.58;94520.34;5026489;28;20419;-76
2022/01/08 00:29:32;;;;;;;7.57;6.73;;;;;;;6.97;65.27;94516.38;5011209;28;20415;-76
2022/01/08 00:32:13;;;;;;;7.13;5.33;;;;;;;6.99;64.71;94524.81;5030314;28;20430;-76
2022/01/08 00:34:51;;;;;;;7.13;6.23;;;;;;;6.97;65.17;94508.56;5029648;28;20450;-76
2022/01/08 00:37:20;;;;;;;5.47;4.97;;;;;;;6.82;65.44;94511.91;5012812;28;20513;-75
2022/01/08 00:40:12;;;;;;;5.87;4.83;;;;;;;6.87;65.15;94507.97;5029618;28;20422;-76
2022/01/08 00:42:56;;;;;;;11.90;6.13;;;;;;;6.80;65.41;94506.06;5029838;28;20438;-75
2022/01/08 00:45:37;;;;;;;5.17;4.00;;;;;;;6.81;65.72;94505.09;5012340;28;20808;-76
2022/01/08 00:48:14;;;;;;;5.53;5.03;;;;;;;6.59;66.54;94508.50;5028837;28;21012;-75
2022/01/08 00:50:52;;;;;;;4.40;4.00;;;;;;;6.44;66.92;94506.66;5028440;28;20423;-75
2022/01/08 00:53:44;;;;;;;5.13;4.67;;;;;;;6.59;66.26;94506.72;5027306;28;20438;-75
2022/01/08 00:56:24;;;;;;;6.43;4.50;;;;;;;6.88;66.00;94512.22;5026843;28;20451;-76
2022/01/08 00:59:06;;;;;;;5.17;4.67;;;;;;;6.98;65.45;94504.97;5050814;28;20484;-76
2022/01/08 01:01:40;;;;;;;5.33;4.83;;;;;;;6.67;65.18;94505.84;5050890;28;20417;-76
2022/01/08 01:04:15;;;;;;;6.00;5.50;;;;;;;7.05;64.92;94500.69;5051689;28;20426;-75
2022/01/08 01:06:44;;;;;;;6.10;5.30;;;;;;;7.01;65.37;94494.22;5051330;28;20419;-76
2022/01/08 01:09:51;;;;;;;5.43;4.93;;;;;;;7.19;63.67;94486.91;5051828;28;20413;-76
2022/01/08 01:12:37;;;;;;;4.40;4.03;;;;;;;6.84;65.61;94489.13;5051351;28;20554;-76
2022/01/08 01:15:20;;;;;;;7.90;5.30;;;;;;;6.93;65.37;94491.69;5051678;28;20428;-76
2022/01/08 01:18:09;;;;;;;5.70;4.10;;;;;;;6.84;66.11;94483.13;5059426;28;20796;-77
2022/01/08 01:20:42;;;;;;;4.03;3.63;;;;;;;6.80;65.31;94480.06;5050727;28;20437;-76
2022/01/08 01:23:18;;;;;;;5.30;4.80;;;;;;;7.15;64.17;94472.63;5051301;28;20416;-77
2022/01/08 01:25:53;;;;;;;4.60;4.20;;;;;;;6.98;65.16;94481.53;5051630;28;20448;-76
2022/01/08 01:28:36;;;;;;;4.83;3.80;;;;;;;7.09;64.94;94467.31;5051486;28;20497;-75
2022/01/08 01:49:17;;;;;;;3.97;3.57;;;;;;;6.59;66.45;94454.72;5073176;28;20420;-75
2022/01/08 01:51:46;;;;;;;3.30;3.00;;;;;;;6.87;65.28;94450.75;5054303;28;20432;-75
2022/01/08 01:54:21;;;;;;;3.93;3.53;;;;;;;6.63;65.76;94447.38;5054772;28;20500;-75
2022/01/08 01:57:06;;;;;;;5.40;4.13;;;;;;;6.63;66.57;94444.78;5055263;28;20455;-75
2022/01/08 02:00:03;;;;;;;3.60;3.30;;;;;;;6.56;66.76;94436.06;5054810;28;20409;-75
2022/01/08 02:02:59;;;;;;;3.90;3.60;;;;;;;6.75;65.79;94438.16;5054622;28;20973;-75
2022/01/08 02:05:47;;;;;;;;;;;;;;;;;;;;;
2022/01/08 02:08:38;;;;;;;3.73;3.43;;;;;;;6.95;65.26;94438.50;5072102;28;20441;-76
2022/01/08 02:11:59;;;;;;;5.07;3.90;;;;;;;6.51;66.97;94431.41;5022236;28;20471;-76
2022/01/08 02:14:39;;;;;;;4.33;4.00;;;;;;;6.68;65.51;94429.47;4982767;28;20435;-76
2022/01/08 02:17:16;;;;;;;4.80;4.40;;;;;;;6.58;66.52;94415.91;5024384;28;20457;-76
2022/01/08 02:19:47;;;;;;;3.40;3.10;;;;;;;6.60;66.61;94411.31;5018824;28;20595;-75
2022/01/08 02:22:16;;;;;;;4.00;3.60;;;;;;;6.71;65.04;94405.72;5033983;28;20403;-75
2022/01/08 02:24:55;;;;;;;4.57;4.10;;;;;;;6.84;65.17;94390.31;5033407;28;20413;-75
2022/01/08 02:27:26;;;;;;;3.60;3.30;;;;;;;6.84;65.35;94389.50;5050964;28;20430;-75
2022/01/08 02:30:16;;;;;;;4.27;3.40;;;;;;;6.48;66.39;94394.56;5051967;28;20504;-75
2022/01/08 02:32:44;;;;;;;3.80;3.50;;;;;;;6.63;66.05;94392.78;5034225;28;20418;-75
2022/01/08 02:35:16;;;;;;;4.67;3.63;;;;;;;6.34;66.95;94388.34;5034004;28;20521;-74
2022/01/08 02:37:55;;;;;;;4.63;4.13;;;;;;;6.73;65.65;94382.94;5033410;28;20522;-75
2022/01/08 02:40:30;;;;;;;4.30;3.77;;;;;;;6.46;66.55;94389.53;5034097;28;20460;-75
2022/01/08 02:43:06;;;;;;;3.03;2.83;;;;;;;6.60;66.58;94372.34;5033747;28;21007;-75
2022/01/08 02:45:46;;;;;;;4.00;3.17;;;;;;;6.51;66.68;94363.03;5033333;28;20409;-76
2022/01/08 02:48:22;;;;;;;4.23;3.77;;;;;;;6.52;66.30;94370.63;5033474;28;20505;-75
2022/01/08 02:50:59;;;;;;;3.70;2.70;;;;;;;6.44;66.28;94374.09;5032323;28;20438;-75
2022/01/08 02:53:39;;;;;;;4.93;3.97;;;;;;;6.92;65.09;94360.00;5034253;28;20494;-76
2022/01/08 02:56:16;;;;;;;3.87;3.30;;;;;;;6.61;65.68;94366.16;5031454;28;20465;-76
2022/01/08 02:58:55;;;;;;;4.73;3.30;;;;;;;6.29;66.57;94362.06;5033567;28;20457;-75
2022/01/08 03:01:30;;;;;;;3.83;3.30;;;;;;;6.67;65.32;94368.06;5033642;28;20422;-75
2022/01/08 03:04:21;;;;;;;3.50;3.20;;;;;;;6.92;64.69;94366.00;5033798;28;20417;-74
2022/01/08 03:09:59;;;;;;;4.27;3.97;;;;;;;6.69;65.33;94363.47;5043098;28;20430;-76
2022/01/08 03:12:46;;;;;;;3.63;3.37;;;;;;;6.79;65.24;94358.84;5052283;28;20504;-75
2022/01/08 03:15:45;;;;;;;3.53;3.33;;;;;;;7.09;65.39;94358.84;5052928;28;21001;-74
2022/01/08 03:18:25;;;;;;;4.40;4.00;;;;;;;6.76;65.60;94353.19;5052690;28;20490;-75
2022/01/08 03:21:18;;;;;;;3.40;3.20;;;;;;;6.91;64.88;94356.59;5048506;28;20422;-75
2022/01/08 03:24:09;;;;;;;5.10;4.00;;;;;;;7.19;64.59;94363.78;5032582;28;20887;-75
2022/01/08 03:27:06;;;;;;;3.30;3.00;;;;;;;7.14;64.41;94361.72;5031499;28;20418;-74
2022/01/08 03:29:59;;;;;;;4.00;3.40;;;;;;;6.89;65.10;94365.59;5023840;28;20848;-75
2022/01/08 03:35:19;;;;;;;3.63;3.20;;;;;;;6.77;66.02;94367.78;5033340;28;20438;-75
2022/01/08 03:37:47;;;;;;;3.83;3.10;;;;;;;6.93;65.39;94369.44;5031299;28;20537;-75
2022/01/08 03:40:58;;;;;;;3.93;3.63;;;;;;;6.81;65.98;94356.03;5031122;28;20458;-76
2022/01/08 03:50:12;;;;;;;2.57;2.37;;;;;;;6.98;64.94;94348.88;5030428;28;20446;-76
2022/01/08 03:52:47;;;;;;;2.97;2.77;;;;;;;7.07;64.57;94337.41;5045930;28;20818;-76
2022/01/08 03:55:32;;;;;;;3.00;2.73;;;;;;;6.82;65.35;94339.47;5032288;28;20886;-76
2022/01/08 03:58:07;;;;;;;2.23;2.03;;;;;;;6.83;65.50;94335.91;5033217;28;20464;-76
2022/01/08 04:01:35;;;;;;;2.70;2.50;;;;;;;6.70;65.68;94330.50;5032888;28;20412;-75
2022/01/08 04:04:10;;;;;;;3.60;2.90;;;;;;;6.40;66.94;94326.06;5033280;28;20427;-76
2022/01/08 04:06:38;;;;;;;2.60;2.40;;;;;;;6.61;67.14;94321.97;5032360;28;20809;-75
2022/01/08 04:09:21;;;;;;;3.63;3.27;;;;;;;6.77;66.16;94327.03;5049629;28;20514;-75
2022/01/08 04:11:55;;;;;;;3.93;3.20;;;;;;;6.64;66.55;94319.81;5033743;28;21082;-75
2022/01/08 04:14:37;;;;;;;3.23;2.93;;;;;;;7.24;64.53;94323.22;5032171;28;20401;-75
2022/01/08 04:17:09;;;;;;;2.83;2.63;;;;;;;6.77;66.03;94327.03;5016778;28;20465;-76
2022/01/08 04:19:47;;;;;;;3.23;2.93;;;;;;;6.65;66.34;94324.03;5032111;28;20422;-75
2022/01/08 04:22:18;;;;;;;3.20;2.90;;;;;;;6.68;66.43;94325.47;5031616;28;20505;-76
2022/01/08 04:24:56;;;;;;;3.27;2.80;;;;;;;6.97;65.85;94331.69;5031807;28;20414;-75
2022/01/08 04:27:22;;;;;;;3.03;2.73;;;;;;;6.92;66.05;94328.78;5032011;28;20418;-76
2022/01/08 04:29:51;;;;;;;4.13;2.90;;;;;;;6.58;67.59;94335.31;5031846;28;20498;-74
2022/01/08 04:32:27;;;;;;;3.90;2.37;;;;;;;6.64;66.53;94332.03;5032376;28;20449;-75
2022/01/08 04:34:59;;;;;;;1.97;1.87;;;;;;;6.55;67.04;94333.09;5031976;28;20410;-75
2022/01/08 04:37:34;;;;;;;2.80;2.60;;;;;;;7.03;65.70;94336.94;5027899;28;20617;-76
2022/01/08 04:40:08;;;;;;;2.17;1.97;;;;;;;6.92;66.01;94334.81;5021162;28;20465;-75
2022/01/08 04:42:48;;;;;;;3.23;2.70;;;;;;;6.84;65.92;94333.09;5028328;28;20524;-75
2022/01/08 04:45:17;;;;;;;2.60;2.40;;;;;;;7.28;64.56;94335.88;5029093;28;20415;-75
2022/01/08 04:47:51;;;;;;;4.13;3.70;;;;;;;6.70;66.63;94335.72;5027472;28;20435;-76
2022/01/08 04:50:23;;;;;;;3.60;3.30;;;;;;;6.59;67.25;94331.75;5016192;28;20456;-76
2022/01/08 04:53:05;;;;;;;3.07;2.87;;;;;;;7.16;64.96;94333.72;5030268;28;20430;-75
2022/01/08 04:55:42;;;;;;;2.63;2.20;;;;;;;7.02;65.92;94334.56;5030962;28;20422;-76
2022/01/08 04:58:08;;;;;;;3.80;2.70;;;;;;;6.80;66.72;94333.66;4988072;28;20536;-76
2022/01/08 05:00:49;;;;;;;2.70;2.30;;;;;;;6.89;66.14;94323.97;4988873;28;20429;-76
2022/01/08 05:03:36;;;;;;;3.03;2.73;;;;;;;6.82;66.38;94329.06;4973885;28;20433;-76
2022/01/08 05:06:29;;;;;;;3.17;2.90;;;;;;;6.91;66.18;94335.00;4971841;28;20440;-75
2022/01/08 05:09:03;;;;;;;2.73;2.53;;;;;;;7.02;65.41;94331.94;4988353;28;20413;-75
2022/01/08 05:11:32;;;;;;;2.70;2.60;;;;;;;7.19;65.71;94330.78;4986546;28;20472;-76
2022/01/08 05:14:23;;;;;;;2.60;2.40;;;;;;;6.74;66.65;94340.38;5005720;28;20420;-75
2022/01/08 05:16:57;;;;;;;3.60;2.43;;;;;;;6.81;66.59;94338.66;5003545;28;20459;-75
2022/01/08 05:19:32;;;;;;;2.40;2.20;;;;;;;6.98;66.40;94334.09;4979480;28;20415;-76
2022/01/08 05:22:51;;;;;;;;;;;;;;;;;;;;;
2022/01/08 05:25:53;;;;;;;3.40;3.17;;;;;;;7.45;64.29;94326.84;5045258;28;20414;-75
2022/01/08 05:28:53;;;;;;;2.50;2.30;;;;;;;7.02;65.86;94334.56;4992391;28;20950;-77
2022/01/08 05:31:28;;;;;;;2.80;2.60;;;;;;;7.24;65.30;94327.63;4987284;28;20507;-75
2022/01/08 05:34:20;;;;;;;;;;;;;;;;;;;;;
2022/01/08 05:36:56;;;;;;;2.77;2.57;;;;;;;7.02;65.65;94329.34;5060369;28;20516;-74
2022/01/08 05:39:27;;;;;;;2.53;2.23;;;;;;;7.35;65.08;94332.34;5046942;28;20442;-75
2022/01/08 05:42:02;;;;;;;3.13;2.20;;;;;;;7.35;64.69;94326.34;5047252;28;20421;-75
2022/01/08 05:44:28;;;;;;;2.40;2.00;;;;;;;7.48;64.33;94334.31;5047126;28;20429;-74
2022/01/08 05:46:58;;;;;;;2.87;2.63;;;;;;;7.37;65.28;94332.97;5042404;28;20547;-75
2022/01/08 05:49:34;;;;;;;3.23;2.47;;;;;;;7.24;65.69;94332.81;5044812;28;20433;-74
2022/01/08 05:52:12;;;;;;;1.97;1.87;;;;;;;7.68;63.71;94324.09;5027272;28;20500;-75
2022/01/08 05:54:50;;;;;;;3.07;2.80;;;;;;;7.63;64.58;94327.28;5026575;28;20515;-73
2022/01/08 05:57:22;;;;;;;2.00;1.90;;;;;;;7.77;64.24;94322.19;5044945;28;20457;-75
2022/01/08 05:59:54;;;;;;;2.57;2.37;;;;;;;7.06;65.83;94320.19;5027216;28;20559;-75
2022/01/08 06:02:23;;;;;;;2.40;2.20;;;;;;;7.44;64.74;94325.25;5029626;28;20441;-75
2022/01/08 06:05:08;;;;;;;3.43;3.13;;;;;;;7.43;64.55;94323.63;5028805;28;20442;-75
2022/01/08 06:07:42;;;;;;;1.93;1.83;;;;;;;7.54;64.04;94322.38;5064725;28;20493;-76
2022/01/08 06:10:29;;;;;;;3.30;3.00;;;;;;;7.49;64.36;94315.09;5043064;28;20470;-76
2022/01/08 06:13:03;;;;;;;2.47;2.27;;;;;;;6.91;66.32;94311.59;5045279;28;20437;-75
2022/01/08 06:15:49;;;;;;;;;;;;;;;;;;;;;
2022/01/08 06:21:59;;;;;;;3.70;2.70;;;;;;;7.30;64.98;94321.66;5024780;28;20526;-75
2022/01/08 06:24:35;;;;;;;;;;;;;;;;;;;;;
2022/01/08 06:27:10;;;;;;;3.07;2.87;;;;;;;7.47;64.94;94317.06;5046149;28;20485;-75
2022/01/08 06:29:39;;;;;;;2.23;2.07;;;;;;;7.43;65.66;94315.81;5029908;28;20413;-76
2022/01/08 06:32:16;;;;;;;2.30;2.20;;;;;;;7.37;65.09;94321.75;5030401;28;20482;-75
2022/01/08 06:34:48;;;;;;;3.73;3.43;;;;;;;7.59;63.97;94313.00;5030404;28;20421;-75
2022/01/08 06:37:32;;;;;;;2.23;2.07;;;;;;;7.60;64.32;94316.41;5010748;28;20981;-76
2022/01/08 06:40:35;;;;;;;2.50;2.00;;;;;;;7.60;64.88;94312.00;5010347;28;20431;-75
2022/01/08 06:43:27;;;;;;;2.20;2.00;;;;;;;7.62;64.64;94307.41;5003757;28;20430;-76
2022/01/08 06:46:01;;;;;;;2.17;1.60;;;;;;;7.43;66.13;94300.19;5030123;28;20798;-75
2022/01/08 06:48:41;;;;;;;2.03;1.63;;;;;;;7.46;65.69;94297.25;5027104;28;20434;-77
2022/01/08 06:51:25;;;;;;;4.73;2.30;;;;;;;7.60;65.38;94298.19;5047188;28;20518;-75
2022/01/08 06:53:59;;;;;;;3.07;2.87;;;;;;;7.30;65.59;94289.66;5043246;28;20871;-75
2022/01/08 06:56:27;;;;;;;2.83;2.40;;;;;;;7.57;65.58;94291.56;5010197;28;20414;-76
2022/01/08 06:58:58;;;;;;;2.40;2.20;;;;;;;7.56;65.41;94300.34;5027914;28;20473;-75
2022/01/08 07:04:50;;;;;;;1.80;1.70;;;;;;;7.86;63.90;94305.47;4965740;29;20476;-75
2022/01/08 07:15:28;;;;;;;2.50;1.90;;;;;;;8.00;63.29;94307.19;4909808;29;20876;-75
2022/01/08 07:18:32;;;;;;;;;;;;;;;;;;;;;
2022/01/08 07:24:35;;;;;;;3.03;1.97;;;;;;;7.65;65.39;94308.06;4908888;29;20440;-76
2022/01/08 07:29:56;;;;;;;2.95;2.10;;;;;;;7.75;64.76;94308.56;5062013;28;20552;-75
2022/01/08 07:32:53;;;;;;;3.00;2.70;;;;;;;7.89;63.91;94299.91;5025164;28;20211;-76
2022/01/08 07:49:49;;;;;;;;;;;;;;;;;;;;;
2022/01/08 07:52:18;;;;;;;2.30;2.10;;;;;;;7.61;64.78;94302.41;5062448;28;20484;-76
2022/01/08 07:55:14;;;;;;;3.10;2.80;;;;;;;8.15;64.30;94299.31;5050298;28;20432;-75
2022/01/08 07:58:28;;;;;;;2.73;2.53;;;;;;;8.15;63.58;94303.72;5045660;28;20515;-74
2022/01/08 08:01:23;;;;;;;2.13;2.03;;;;;;;8.47;62.37;94297.19;5065802;28;20436;-76
2022/01/08 08:04:13;;;;;;;4.60;4.20;;;;;;;8.57;61.79;94302.88;5036905;28;20486;-76
2022/01/08 08:07:08;;;;;;;2.13;1.83;;;;;;;8.34;62.25;94299.66;5035082;28;20887;-75
2022/01/08 08:10:06;;;;;;;2.10;1.90;;;;;;;8.63;61.67;94309.13;5028079;28;20461;-75
2022/01/08 08:12:44;;;;;;;3.27;2.30;;;;;;;8.73;61.76;94300.97;5033653;28;20443;-75
2022/01/08 08:15:39;;;;;;;2.93;2.27;;;;;;;8.51;61.44;94306.22;5048056;28;20445;-75
2022/01/08 08:18:16;;;;;;;2.93;2.43;;;;;;;8.44;61.33;94300.16;5063012;28;20480;-75
2022/01/08 08:21:18;;;;;;;2.30;2.20;;;;;;;8.92;60.33;94304.69;5047633;28;20441;-75
2022/01/08 08:23:52;;;;;;;1.77;1.67;;;;;;;9.08;60.23;94304.38;5027516;28;20486;-75
2022/01/08 08:26:30;;;;;;;2.33;2.13;;;;;;;9.14;59.78;94301.00;5046218;28;20425;-75
2022/01/08 08:32:03;;;;;;;2.07;1.90;;;;;;;9.03;60.79;94291.13;5040195;28;20524;-75
2022/01/08 08:34:36;;;;;;;1.27;1.17;;;;;;;9.10;58.95;94291.94;5027711;28;20436;-74
2022/01/08 08:37:21;;;;;;;4.70;2.40;;;;;;;9.53;58.14;94294.31;5039538;28;20464;-75
2022/01/08 08:40:07;;;;;;;2.67;2.03;;;;;;;9.10;59.46;94284.09;5042867;28;20438;-77
2022/01/08 08:43:23;;;;;;;;;;;;;;;;;;;;;
2022/01/08 08:46:30;;;;;;;4.13;3.23;;;;;;;9.16;59.66;94285.94;4983046;28;20536;-77
2022/01/08 08:49:17;;;;;;;2.57;2.37;;;;;;;9.13;59.83;94286.34;4964808;28;20563;-77
2022/01/08 08:59:24;;;;;;;2.43;1.60;;;;;;;9.24;59.64;94271.09;5047835;28;20473;-78
2022/01/08 09:02:12;;;;;;;2.30;2.10;;;;;;;9.19;58.83;94269.88;5043544;28;20489;-78
2022/01/08 09:04:40;;;;;;;2.27;2.17;;;;;;;9.16;59.54;94254.63;5046915;28;20448;-77
2022/01/08 09:07:34;;;;;;;3.10;2.60;;;;;;;9.97;57.24;94251.19;5039790;28;20434;-78
2022/01/08 09:11:02;;;;;;;4.80;2.30;;;;;;;9.24;59.08;94250.22;4989210;28;20983;-77
2022/01/08 09:14:11;;;;;;;3.10;2.60;;;;;;;9.13;59.28;94243.78;5027602;28;20506;-77
2022/01/08 09:16:44;;;;;;;1.50;1.40;;;;;;;9.21;58.17;94250.63;5053317;28;20449;-77
2022/01/08 09:19:27;;;;;;;4.33;2.23;;;;;;;9.40;58.03;94244.66;5047444;28;20528;-77
2022/01/08 09:21:55;;;;;;;4.73;2.77;;;;;;;9.67;57.72;94245.50;5045796;28;20413;-76
2022/01/08 09:24:38;;;;;;;3.70;2.60;;;;;;;10.12;56.93;94231.88;5046706;28;20433;-77
2022/01/08 09:27:53;;;;;;;3.40;3.07;;;;;;;9.60;57.73;94238.66;5027750;28;20470;-77
2022/01/08 09:30:45;;;;;;;;;;;;;;;;;;;;;
2022/01/08 09:33:30;;;;;;;;;;;;;;;;;;;;;
2022/01/08 09:37:02;;;;;;;2.20;2.00;;;;;;;10.10;56.67;94220.81;5053385;28;20545;-77
2022/01/08 09:39:30;;;;;;;3.10;2.67;;;;;;;10.16;55.77;94212.97;4964138;29;20465;-76
2022/01/08 09:41:58;;;;;;;4.47;3.20;;;;;;;10.34;55.63;94204.56;5039744;28;20434;-76
2022/01/08 09:44:24;;;;;;;4.43;3.10;;;;;;;10.20;55.32;94202.13;5054177;28;20443;-76
2022/01/08 09:46:52;;;;;;;2.80;2.53;;;;;;;10.54;54.95;94206.31;5044284;28;20438;-76
2022/01/08 09:49:24;;;;;;;4.90;2.77;;;;;;;9.91;56.42;94204.94;5045125;28;20180;-77
2022/01/08 09:51:55;;;;;;;2.00;1.90;;;;;;;10.39;55.50;94203.13;5036074;28;20504;-76
2022/01/08 09:54:27;;;;;;;2.80;2.33;;;;;;;10.91;54.26;94201.38;5060867;28;20433;-76
2022/01/08 09:56:54;;;;;;;7.63;3.00;;;;;;;10.57;54.44;94189.41;5054604;28;20425;-76
2022/01/08 09:59:28;;;;;;;3.40;2.13;;;;;;;10.59;55.14;94184.78;5043451;28;20437;-76
2022/01/08 10:01:58;;;;;;;2.80;2.27;;;;;;;10.51;55.01;94181.38;5044127;28;20498;-76
2022/01/08 10:04:30;;;;;;;2.37;2.17;;;;;;;10.48;54.52;94186.22;5059004;28;21041;-76
2022/01/08 10:07:28;;;;;;;2.20;2.07;;;;;;;10.39;54.74;94177.78;5054381;28;20422;-76
2022/01/08 10:10:10;;;;;;;3.57;2.60;;;;;;;9.85;56.80;94179.63;5010171;28;20428;-76
2022/01/08 10:12:54;;;;;;;6.73;2.23;;;;;;;9.51;57.26;94183.22;5061550;28;20441;-75
2022/01/08 10:18:23;;;;;;;3.10;2.20;;;;;;;9.85;56.62;94176.22;5054122;28;20500;-77
2022/01/08 10:20:50;;;;;;;2.90;2.13;;;;;;;9.63;57.97;94159.91;5034007;28;20429;-76
2022/01/08 10:23:23;;;;;;;1.83;1.73;;;;;;;9.79;56.99;94164.75;5040971;28;20202;-77
2022/01/08 10:25:57;;;;;;;7.07;3.20;;;;;;;10.11;56.60;94172.75;5041006;28;20573;-76
2022/01/08 10:28:33;;;;;;;2.10;1.70;;;;;;;10.27;56.43;94164.50;5042667;28;20460;-76
2022/01/08 10:31:39;;;;;;;2.60;2.40;;;;;;;10.63;54.86;94162.44;5053563;28;20445;-76
2022/01/08 10:34:20;;;;;;;2.50;2.40;;;;;;;10.81;55.02;94156.50;4956568;29;20430;-77
2022/01/08 10:36:49;;;;;;;2.90;2.10;;;;;;;10.42;55.17;94147.81;5043849;28;20417;-76
2022/01/08 10:39:22;;;;;;;2.67;2.47;;;;;;;10.62;55.34;94137.25;5044135;28;20545;-77
2022/01/08 10:41:55;;;;;;;2.57;1.97;;;;;;;10.50;55.23;94139.72;5037029;28;20424;-76
2022/01/08 10:44:27;;;;;;;4.27;3.13;;;;;;;10.56;54.73;94131.03;5029297;28;20425;-77
2022/01/08 10:46:59;;;;;;;5.67;2.60;;;;;;;10.61;55.35;94133.06;5047965;28;20501;-77
2022/01/08 10:49:34;;;;;;;2.73;2.53;;;;;;;10.84;54.60;94135.16;5062471;28;20502;-76
2022/01/08 10:52:05;;;;;;;3.87;3.33;;;;;;;10.82;54.66;94117.06;5040153;28;20513;-76
2022/01/08 10:54:33;;;;;;;3.47;3.17;;;;;;;11.00;54.32;94126.03;5054361;28;20433;-76
2022/01/08 10:57:02;;;;;;;3.33;3.13;;;;;;;10.99;54.66;94117.38;5038710;28;20996;-77
2022/01/08 10:59:36;;;;;;;3.57;3.27;;;;;;;11.36;53.38;94125.41;5061046;28;20996;-76
2022/01/08 11:02:12;;;;;;;3.07;2.83;;;;;;;11.05;53.93;94121.75;5031113;28;20504;-76
2022/01/08 11:04:45;;;;;;;3.37;3.07;;;;;;;10.78;54.63;94130.78;5025438;28;20560;-76
2022/01/08 11:07:22;;;;;;;3.30;3.00;;;;;;;10.34;56.28;94120.06;5042594;28;20425;-76
2022/01/08 11:09:50;;;;;;;2.70;2.50;;;;;;;10.88;54.56;94120.66;5042209;28;20435;-76
2022/01/08 11:12:25;;;;;;;4.10;3.23;;;;;;;10.86;54.82;94117.44;5028963;28;20430;-75
2022/01/08 11:17:37;;;;;;;3.03;2.50;;;;;;;11.31;53.15;94128.66;5046300;28;20457;-76
2022/01/08 11:20:10;;;;;;;4.33;3.20;;;;;;;11.00;53.54;94111.09;5041900;28;20433;-76
2022/01/08 11:22:39;;;;;;;3.00;2.80;;;;;;;10.35;55.11;94121.66;5045669;28;20417;-76
2022/01/08 11:25:09;;;;;;;3.30;3.00;;;;;;;10.41;56.10;94114.78;5042109;28;20963;-76
2022/01/08 11:27:58;;;;;;;4.73;3.20;;;;;;;10.82;54.85;94116.25;5046389;28;20734;-75
2022/01/08 11:30:26;;;;;;;4.10;3.10;;;;;;;11.18;53.78;94118.28;5023797;28;20453;-75
2022/01/08 11:32:59;;;;;;;3.77;3.47;;;;;;;10.73;55.14;94115.69;5055847;28;20461;-75
2022/01/08 11:35:28;;;;;;;2.53;2.27;;;;;;;10.55;54.23;94111.13;5025925;28;20462;-76
2022/01/08 11:37:56;;;;;;;3.63;2.40;;;;;;;10.71;53.67;94099.38;5046400;28;20449;-76
2022/01/08 11:40:25;;;;;;;3.63;2.57;;;;;;;11.21;52.77;94107.38;5028431;28;20504;-77
2022/01/08 11:42:54;;;;;;;3.53;3.03;;;;;;;11.14;52.83;94098.75;5028551;28;20529;-77
2022/01/08 11:45:27;;;;;;;6.83;3.63;;;;;;;10.74;54.06;94094.53;5018281;28;20468;-76
2022/01/08 11:47:58;;;;;;;3.47;3.17;;;;;;;10.50;54.35;94093.44;5027041;28;20472;-76
2022/01/08 11:50:26;;;;;;;3.50;3.17;;;;;;;10.84;54.62;94096.72;5028365;28;20438;-77
2022/01/08 11:53:14;;;;;;;3.10;2.80;;;;;;;10.85;54.31;94081.78;5025010;28;20937;-76
2022/01/08 11:55:50;;;;;;;5.70;3.10;;;;;;;10.82;54.09;94077.78;5037125;28;20438;-76
2022/01/08 11:58:20;;;;;;;3.03;2.83;;;;;;;10.46;55.09;94075.75;5045984;28;20982;-76
2022/01/08 12:01:06;;;;;;;4.90;3.53;;;;;;;10.54;54.63;94083.34;5051638;28;20481;-76
2022/01/08 12:03:48;;;;;;;3.20;2.90;;;;;;;11.07;53.83;94082.28;5044261;28;20479;-76
2022/01/08 12:06:23;;;;;;;3.57;3.23;;;;;;;11.46;52.75;94081.22;5060973;28;20430;-76
2022/01/08 12:09:23;;;;;;;7.23;3.50;;;;;;;10.86;54.26;94067.72;5036144;28;20434;-76
2022/01/08 12:11:51;;;;;;;2.90;2.60;;;;;;;11.04;53.02;94073.03;5039756;28;20435;-77
2022/01/08 12:14:27;;;;;;;3.10;2.90;;;;;;;10.37;55.12;94071.75;5065826;28;20424;-76
2022/01/08 12:17:22;;;;;;;3.97;3.63;;;;;;;10.73;54.76;94068.56;5032746;28;20406;-78
2022/01/08 12:19:53;;;;;;;3.63;3.33;;;;;;;10.47;54.72;94064.25;5044269;28;20477;-76
2022/01/08 12:22:25;;;;;;;4.70;3.70;;;;;;;10.16;56.19;94065.75;5057496;28;20449;-77
2022/01/08 12:24:52;;;;;;;3.20;3.00;;;;;;;10.27;56.21;94065.13;5038382;28;20560;-76
2022/01/08 12:27:39;;;;;;;4.93;4.13;;;;;;;10.54;56.19;94057.19;5062739;28;20484;-77
2022/01/08 12:30:17;;;;;;;3.57;2.97;;;;;;;10.57;55.64;94061.19;5035897;28;20472;-77
2022/01/08 12:33:12;;;;;;;3.73;3.43;;;;;;;10.84;55.23;94070.53;5035420;28;20414;-76
2022/01/08 12:35:38;;;;;;;3.90;3.50;;;;;;;9.73;58.08;94071.47;5039254;28;20444;-77
2022/01/08 12:38:21;;;;;;;3.07;2.87;;;;;;;10.00;57.55;94071.41;5047647;28;20536;-76
2022/01/08 12:40:52;;;;;;;3.40;3.10;;;;;;;10.51;55.97;94068.09;5043524;28;20487;-77
2022/01/08 12:43:35;;;;;;;3.83;3.47;;;;;;;10.68;55.95;94068.38;5045803;28;20514;-77
2022/01/08 12:46:19;;;;;;;3.93;3.30;;;;;;;10.89;55.21;94065.47;5036873;28;20449;-77
2022/01/08 12:49:06;;;;;;;3.17;2.80;;;;;;;11.13;54.12;94066.53;5043303;28;20417;-76
2022/01/08 12:52:07;;;;;;;3.70;3.40;;;;;;;10.60;55.07;94061.59;5053959;28;20425;-76
2022/01/08 12:54:41;;;;;;;3.50;3.20;;;;;;;10.41;56.37;94065.91;5001571;28;20437;-76
2022/01/08 12:57:09;;;;;;;3.90;3.17;;;;;;;10.16;56.44;94076.22;5043104;28;20461;-76
2022/01/08 12:59:39;;;;;;;4.17;3.70;;;;;;;9.86;57.21;94071.44;5037888;28;20868;-76
2022/01/08 13:02:07;;;;;;;3.37;3.07;;;;;;;10.18;57.22;94073.41;5036188;28;20528;-76
2022/01/08 13:04:42;;;;;;;3.33;2.93;;;;;;;10.33;56.49;94072.16;5034435;28;20449;-76
2022/01/08 13:07:10;;;;;;;4.60;3.87;;;;;;;10.01;56.85;94062.59;5062050;28;20416;-76
2022/01/08 13:09:36;;;;;;;4.67;3.73;;;;;;;9.99;57.64;94060.19;5043997;28;20433;-76
2022/01/08 13:12:05;;;;;;;4.77;3.83;;;;;;;9.38;59.28;94063.88;5032399;28;20437;-75
2022/01/08 13:14:33;;;;;;;4.67;4.20;;;;;;;10.41;57.06;94062.50;5036106;28;20205;-76
2022/01/08 13:17:06;;;;;;;4.13;3.73;;;;;;;10.15;57.55;94069.41;5056117;28;20884;-76
2022/01/08 13:19:34;;;;;;;3.70;2.70;;;;;;;9.89;57.54;94054.56;5043547;28;20479;-76
2022/01/08 13:22:08;;;;;;;3.87;3.57;;;;;;;9.74;57.68;94053.00;5047073;28;20435;-76
2022/01/08 13:24:39;;;;;;;4.63;3.67;;;;;;;9.87;58.02;94056.59;5066850;28;20403;-78
2022/01/08 13:27:08;;;;;;;4.90;4.40;;;;;;;9.76;58.57;94050.19;5062488;28;20923;-77
2022/01/08 13:29:42;;;;;;;4.03;3.73;;;;;;;9.94;58.15;94045.13;5046642;28;20417;-76
2022/01/08 13:32:13;;;;;;;6.67;4.20;;;;;;;9.51;59.71;94055.25;5045897;28;20458;-76
2022/01/08 13:34:47;;;;;;;6.73;4.13;;;;;;;10.23;57.30;94050.06;5041564;28;20443;-77
2022/01/08 13:37:17;;;;;;;4.63;3.50;;;;;;;10.22;57.37;94053.69;5049913;28;20513;-77
2022/01/08 13:39:57;;;;;;;5.10;3.40;;;;;;;9.78;58.10;94050.78;5050356;28;21327;-76
2022/01/08 13:42:28;;;;;;;4.93;3.83;;;;;;;10.37;57.14;94049.03;5068632;28;20416;-76
2022/01/08 13:44:59;;;;;;;5.20;3.97;;;;;;;10.23;56.68;94055.28;5068472;28;20416;-76
2022/01/08 13:47:39;;;;;;;4.20;3.80;;;;;;;10.04;57.25;94052.53;5068063;28;20413;-77
2022/01/08 13:50:19;;;;;;;5.27;4.13;;;;;;;9.88;57.85;94058.97;5068300;28;20440;-77
2022/01/08 13:52:51;;;;;;;5.43;4.30;;;;;;;10.06;58.16;94060.16;5050649;28;20409;-77
2022/01/08 13:55:26;;;;;;;3.97;3.60;;;;;;;9.95;58.67;94053.75;5068460;28;21248;-77
2022/01/08 13:58:03;;;;;;;2.47;2.13;;;;;;;9.63;59.08;94060.66;5049954;28;20537;-76
2022/01/08 14:00:40;;;;;;;13.60;6.50;;;;;;;9.61;58.61;94049.59;5046953;28;20507;-76
2022/01/08 14:03:22;;;;;;;3.90;3.60;;;;;;;9.77;58.26;94047.38;5048753;28;20772;-77
2022/01/08 14:05:49;;;;;;;4.60;4.00;;;;;;;10.10;57.71;94050.91;5065470;28;20413;-77
2022/01/08 14:08:17;;;;;;;4.97;3.90;;;;;;;10.33;57.27;94055.69;5044501;28;20421;-77
2022/01/08 14:10:46;;;;;;;3.77;3.47;;;;;;;10.28;56.88;94058.91;5042349;28;20433;-77
2022/01/08 14:13:26;;;;;;;3.70;3.37;;;;;;;9.54;59.73;94060.03;5038819;28;20406;-77
2022/01/08 14:16:03;;;;;;;3.13;2.93;;;;;;;9.83;58.67;94052.78;5035726;28;20415;-76
2022/01/08 14:18:32;;;;;;;4.97;4.03;;;;;;;10.01;58.74;94054.75;5048216;28;20459;-76
2022/01/08 14:21:19;;;;;;;3.97;3.63;;;;;;;10.14;57.26;94052.09;5046971;28;20428;-76